Time;durP1;ratioP1;P1;durP2;ratioP2;P2;SDS_P1;SDS_P2;PMS_P1;PMS_P2;Temp;Humidity;BMP_temperature;BMP_pressure;BME280_temperature;BME280_humidity;BME280_pressure;Samples;Min_cycle;Max_cycle;Signal;HPM_P1;HPM_P2
2023/01/18 00:00:49;;;;;;;8.03;4.87;;;;;;;;;;5028875;28;20222;-72
2023/01/18 00:03:15;;;;;;;6.53;4.60;;;;;;;;;;5025466;28;20226;-71
2023/01/18 00:05:42;;;;;;;7.03;4.67;;;;;;;;;;5018069;28;20181;-72
2023/01/18 00:08:09;;;;;;;9.23;5.20;;;;;;;;;;5022853;28;20187;-72
2023/01/18 00:10:36;;;;;;;9.00;5.47;;;;;;;;;;5019717;28;20829;-71
2023/01/18 00:13:02;;;;;;;8.03;4.80;;;;;;;;;;5023006;28;20608;-71
2023/01/18 00:15:28;;;;;;;9.10;5.40;;;;;;;;;;5030221;28;20240;-71
2023/01/18 00:17:54;;;;;;;7.13;5.13;;;;;;;;;;5017888;28;20187;-71
2023/01/18 00:20:21;;;;;;;7.63;5.30;;;;;;;;;;5015208;28;20717;-71
2023/01/18 00:22:48;;;;;;;8.47;5.13;;;;;;;;;;5021659;28;20194;-71
2023/01/18 00:25:14;;;;;;;10.70;5.57;;;;;;;;;;5015645;28;20254;-71
2023/01/18 00:27:44;;;;;;;8.93;5.80;;;;;;;;;;5025044;28;20558;-71
2023/01/18 00:30:10;;;;;;;8.00;5.40;;;;;;;;;;5023864;28;20191;-71
2023/01/18 00:32:36;;;;;;;11.20;6.60;;;;;;;;;;5025803;28;20206;-71
2023/01/18 00:35:06;;;;;;;8.47;5.30;;;;;;;;;;5027936;28;20186;-71
2023/01/18 00:37:35;;;;;;;9.40;5.53;;;;;;;;;;5028847;28;20663;-71
2023/01/18 00:40:02;;;;;;;7.63;5.30;;;;;;;;;;5027299;28;20269;-71
2023/01/18 00:45:13;;;;;;;7.93;5.33;;;;;;;;;;5020898;28;20270;-71
2023/01/18 00:47:39;;;;;;;11.23;6.63;;;;;;;;;;5021352;28;20874;-70
2023/01/18 00:50:06;;;;;;;9.27;5.20;;;;;;;;;;5027417;28;20190;-70
2023/01/18 00:52:33;;;;;;;10.23;5.80;;;;;;;;;;5021581;28;20207;-71
2023/01/18 00:55:00;;;;;;;9.37;5.50;;;;;;;;;;5021668;28;20182;-71
2023/01/18 00:57:26;;;;;;;9.03;5.97;;;;;;;;;;5025190;28;20178;-71
2023/01/18 00:59:52;;;;;;;8.73;5.60;;;;;;;;;;5019416;28;20850;-71
2023/01/18 01:02:18;;;;;;;10.30;5.83;;;;;;;;;;5018440;28;20604;-70
2023/01/18 01:07:30;;;;;;;7.50;5.20;;;;;;;;;;5010983;28;20179;-71
2023/01/18 01:09:56;;;;;;;9.80;5.83;;;;;;;;;;5028128;28;20182;-71
2023/01/18 01:26:09;;;;;;;10.87;5.70;;;;;;;;;;5038192;28;20190;-71
2023/01/18 01:28:37;;;;;;;7.13;4.97;;;;;;;;;;5019515;28;20171;-71
2023/01/18 01:31:03;;;;;;;8.67;5.87;;;;;;;;;;5021985;28;20282;-71
2023/01/18 01:33:30;;;;;;;8.40;5.83;;;;;;;;;;5021824;28;20686;-71
2023/01/18 01:36:01;;;;;;;8.33;5.40;;;;;;;;;;5019604;28;20249;-71
2023/01/18 01:38:27;;;;;;;10.83;6.23;;;;;;;;;;5018898;28;20194;-71
2023/01/18 01:41:25;;;;;;;11.30;6.17;;;;;;;;;;5018361;28;20645;-71
2023/01/18 01:43:51;;;;;;;8.17;5.70;;;;;;;;;;5011067;28;20214;-71
2023/01/18 01:46:18;;;;;;;11.70;6.30;;;;;;;;;;5017856;28;20182;-71
2023/01/18 01:48:44;;;;;;;9.50;5.83;;;;;;;;;;5020457;28;20661;-71
2023/01/18 01:51:10;;;;;;;10.50;5.90;;;;;;;;;;5017746;28;20217;-71
2023/01/18 01:53:37;;;;;;;8.53;5.90;;;;;;;;;;5021586;28;20596;-71
2023/01/18 01:56:04;;;;;;;8.43;6.17;;;;;;;;;;5017279;28;20222;-71
2023/01/18 01:58:30;;;;;;;8.47;6.10;;;;;;;;;;5020545;28;20659;-72
2023/01/18 02:00:57;;;;;;;10.60;6.33;;;;;;;;;;5016097;28;20221;-71
2023/01/18 02:03:24;;;;;;;7.47;5.60;;;;;;;;;;5021038;28;20201;-71
2023/01/18 02:05:52;;;;;;;9.90;5.93;;;;;;;;;;5022715;28;20183;-71
2023/01/18 02:08:22;;;;;;;10.77;5.60;;;;;;;;;;5018889;28;20215;-71
2023/01/18 02:10:49;;;;;;;8.17;5.50;;;;;;;;;;5014662;28;20199;-71
2023/01/18 02:13:15;;;;;;;11.23;5.60;;;;;;;;;;5026338;28;20218;-71
2023/01/18 02:15:54;;;;;;;8.50;5.80;;;;;;;;;;5002661;28;20687;-71
2023/01/18 02:18:31;;;;;;;7.23;5.30;;;;;;;;;;5019682;28;20229;-71
2023/01/18 02:20:58;;;;;;;8.10;5.30;;;;;;;;;;5020899;28;20554;-71
2023/01/18 02:23:42;;;;;;;7.50;5.20;;;;;;;;;;5021149;28;20194;-71
2023/01/18 02:26:27;;;;;;;7.77;5.27;;;;;;;;;;5016900;28;20175;-71
2023/01/18 02:28:58;;;;;;;8.50;5.30;;;;;;;;;;5023451;28;20206;-71
2023/01/18 02:31:32;;;;;;;8.13;4.80;;;;;;;;;;5016604;28;20190;-71
2023/01/18 02:34:08;;;;;;;6.03;4.57;;;;;;;;;;5020031;28;20190;-71
2023/01/18 02:36:44;;;;;;;8.47;5.17;;;;;;;;;;5015770;28;20190;-71
2023/01/18 02:39:22;;;;;;;6.67;4.70;;;;;;;;;;5022674;28;20884;-71
2023/01/18 02:47:28;;;;;;;9.40;5.67;;;;;;;;;;5017718;28;20206;-71
2023/01/18 02:49:56;;;;;;;7.20;5.53;;;;;;;;;;5018452;28;20217;-71
2023/01/18 02:52:52;;;;;;;6.70;5.00;;;;;;;;;;5017038;28;20405;-71
2023/01/18 02:55:41;;;;;;;7.60;5.23;;;;;;;;;;5009469;28;20198;-71
2023/01/18 02:58:20;;;;;;;6.93;4.50;;;;;;;;;;5021275;28;20245;-71
2023/01/18 03:00:50;;;;;;;8.83;5.47;;;;;;;;;;5014415;28;20916;-71
2023/01/18 03:03:17;;;;;;;7.70;5.03;;;;;;;;;;5015756;28;20222;-71
2023/01/18 03:05:45;;;;;;;7.33;5.30;;;;;;;;;;5019706;28;20269;-71
2023/01/18 03:08:16;;;;;;;6.33;4.73;;;;;;;;;;5016950;28;20170;-71
2023/01/18 03:10:47;;;;;;;7.37;5.03;;;;;;;;;;5018103;28;20187;-71
2023/01/18 03:13:16;;;;;;;7.87;5.40;;;;;;;;;;5015595;28;20222;-71
2023/01/18 03:15:51;;;;;;;10.40;5.20;;;;;;;;;;5012792;28;20187;-72
2023/01/18 03:18:20;;;;;;;8.57;5.30;;;;;;;;;;5016003;28;20189;-72
2023/01/18 03:20:47;;;;;;;7.17;4.97;;;;;;;;;;5014807;28;20210;-71
2023/01/18 03:23:39;;;;;;;7.73;4.90;;;;;;;;;;5020535;28;20202;-71
2023/01/18 03:26:10;;;;;;;8.83;4.87;;;;;;;;;;5017101;28;20183;-71
2023/01/18 03:34:49;;;;;;;8.07;5.23;;;;;;;;;;5016883;28;20182;-71
2023/01/18 03:37:19;;;;;;;6.93;4.57;;;;;;;;;;5023310;28;20175;-71
2023/01/18 03:39:54;;;;;;;6.10;4.40;;;;;;;;;;5017645;28;20251;-72
2023/01/18 03:42:23;;;;;;;6.27;5.20;;;;;;;;;;5014808;28;20214;-71
2023/01/18 03:44:49;;;;;;;6.00;4.70;;;;;;;;;;5015997;28;20541;-71
2023/01/18 03:47:16;;;;;;;7.23;4.70;;;;;;;;;;5025823;28;20178;-71
2023/01/18 03:49:42;;;;;;;6.80;4.83;;;;;;;;;;5027185;28;20178;-71
2023/01/18 03:52:16;;;;;;;6.43;4.77;;;;;;;;;;5025750;28;20768;-71
2023/01/18 03:54:51;;;;;;;7.17;4.27;;;;;;;;;;5015550;28;20206;-71
2023/01/18 03:57:20;;;;;;;6.00;4.77;;;;;;;;;;5012846;28;20248;-71
2023/01/18 03:59:47;;;;;;;7.90;5.40;;;;;;;;;;5018030;28;20650;-71
2023/01/18 04:02:15;;;;;;;9.53;5.40;;;;;;;;;;5021603;28;20210;-71
2023/01/18 04:04:42;;;;;;;8.20;5.23;;;;;;;;;;5026878;28;20193;-71
2023/01/18 04:07:08;;;;;;;8.83;5.23;;;;;;;;;;5024981;28;20225;-71
2023/01/18 04:09:34;;;;;;;6.93;4.67;;;;;;;;;;5023654;28;20312;-71
2023/01/18 04:12:00;;;;;;;8.27;5.47;;;;;;;;;;5010429;28;20241;-71
2023/01/18 04:14:26;;;;;;;7.00;5.13;;;;;;;;;;5020431;28;20195;-70
2023/01/18 04:16:52;;;;;;;6.90;4.93;;;;;;;;;;5024066;28;20178;-70
2023/01/18 04:19:18;;;;;;;6.57;4.60;;;;;;;;;;5022258;28;20606;-70
2023/01/18 04:21:45;;;;;;;5.90;4.50;;;;;;;;;;5023224;28;20206;-70
2023/01/18 04:24:11;;;;;;;6.03;4.23;;;;;;;;;;5027922;28;20297;-71
2023/01/18 04:26:37;;;;;;;7.13;4.97;;;;;;;;;;5020695;28;20175;-71
2023/01/18 04:29:04;;;;;;;7.57;4.90;;;;;;;;;;5020010;28;20230;-71
2023/01/18 04:31:30;;;;;;;5.70;4.50;;;;;;;;;;5021959;28;20277;-71
2023/01/18 04:33:56;;;;;;;6.73;4.80;;;;;;;;;;5019499;28;20206;-71
2023/01/18 04:36:22;;;;;;;6.03;4.47;;;;;;;;;;5024735;28;20697;-71
2023/01/18 04:38:52;;;;;;;7.27;5.37;;;;;;;;;;5023121;28;20183;-70
2023/01/18 04:41:19;;;;;;;8.63;5.40;;;;;;;;;;5017055;28;20240;-71
2023/01/18 04:43:45;;;;;;;8.57;5.27;;;;;;;;;;5025786;28;20207;-71
2023/01/18 04:46:11;;;;;;;7.90;5.00;;;;;;;;;;5020593;28;20802;-71
2023/01/18 04:48:37;;;;;;;7.70;5.33;;;;;;;;;;5022937;28;20278;-71
2023/01/18 04:51:04;;;;;;;8.00;5.07;;;;;;;;;;5025364;28;20190;-71
2023/01/18 04:53:30;;;;;;;8.10;5.33;;;;;;;;;;5028590;28;20747;-71
2023/01/18 04:55:57;;;;;;;7.27;5.60;;;;;;;;;;5016069;28;20866;-71
2023/01/18 04:58:23;;;;;;;10.77;5.07;;;;;;;;;;5026843;28;20187;-71
2023/01/18 05:00:49;;;;;;;7.70;5.50;;;;;;;;;;5021423;28;20483;-71
2023/01/18 05:03:16;;;;;;;6.93;5.20;;;;;;;;;;5017239;28;20203;-71
2023/01/18 05:05:42;;;;;;;6.60;4.90;;;;;;;;;;5020486;28;20183;-71
2023/01/18 05:08:08;;;;;;;10.30;4.90;;;;;;;;;;5025342;28;20209;-71
2023/01/18 05:10:34;;;;;;;7.33;4.87;;;;;;;;;;5017634;28;20190;-71
2023/01/18 05:13:00;;;;;;;8.75;5.97;;;;;;;;;;5016035;28;20473;-71
2023/01/18 05:15:26;;;;;;;7.47;5.20;;;;;;;;;;5019097;28;20186;-71
2023/01/18 05:17:52;;;;;;;9.20;5.43;;;;;;;;;;5025145;28;20179;-71
2023/01/18 05:20:18;;;;;;;9.40;5.47;;;;;;;;;;5027086;28;20670;-71
2023/01/18 05:22:45;;;;;;;6.87;5.00;;;;;;;;;;5026778;28;20681;-71
2023/01/18 05:25:11;;;;;;;8.57;4.93;;;;;;;;;;5024815;28;20301;-71
2023/01/18 05:27:37;;;;;;;6.53;4.83;;;;;;;;;;5024943;28;20209;-71
2023/01/18 05:30:03;;;;;;;7.20;4.90;;;;;;;;;;5017910;28;20178;-71
2023/01/18 05:32:29;;;;;;;6.63;5.30;;;;;;;;;;5018009;28;24110;-71
2023/01/18 05:34:55;;;;;;;7.73;5.40;;;;;;;;;;5018773;28;20228;-71
2023/01/18 05:37:21;;;;;;;7.20;5.17;;;;;;;;;;5016405;28;20557;-71
2023/01/18 05:39:47;;;;;;;7.37;4.87;;;;;;;;;;5025243;28;20182;-71
2023/01/18 05:42:13;;;;;;;8.20;5.70;;;;;;;;;;5020016;28;20210;-71
2023/01/18 05:44:40;;;;;;;8.50;5.97;;;;;;;;;;5019997;28;20496;-71
2023/01/18 05:47:06;;;;;;;8.40;6.40;;;;;;;;;;5023122;28;20437;-71
2023/01/18 05:49:32;;;;;;;9.13;6.37;;;;;;;;;;5020300;28;20175;-71
2023/01/18 05:51:58;;;;;;;8.27;6.13;;;;;;;;;;5025072;28;20178;-71
2023/01/18 05:54:24;;;;;;;8.00;6.83;;;;;;;;;;5025979;28;20221;-71
2023/01/18 05:56:50;;;;;;;10.93;7.17;;;;;;;;;;5017907;28;20256;-71
2023/01/18 05:59:17;;;;;;;10.67;7.73;;;;;;;;;;5010282;28;20191;-71
2023/01/18 06:01:43;;;;;;;11.07;7.43;;;;;;;;;;5023473;28;20217;-71
2023/01/18 06:04:09;;;;;;;11.47;7.57;;;;;;;;;;5019496;28;20242;-71
2023/01/18 06:06:35;;;;;;;9.33;6.90;;;;;;;;;;5024274;28;20179;-71
2023/01/18 06:09:02;;;;;;;15.00;8.13;;;;;;;;;;5025445;28;20182;-71
2023/01/18 06:11:28;;;;;;;13.43;8.10;;;;;;;;;;5015549;28;20575;-71
2023/01/18 06:13:54;;;;;;;12.03;7.63;;;;;;;;;;5024185;28;20218;-72
2023/01/18 06:16:20;;;;;;;11.60;7.93;;;;;;;;;;5002679;28;20775;-71
2023/01/18 06:18:47;;;;;;;9.27;7.10;;;;;;;;;;5027030;28;20205;-71
2023/01/18 06:21:14;;;;;;;11.40;7.33;;;;;;;;;;5025676;28;20206;-71
2023/01/18 06:23:40;;;;;;;13.33;8.23;;;;;;;;;;5024837;28;20206;-71
2023/01/18 06:26:06;;;;;;;13.23;8.20;;;;;;;;;;5023894;28;20317;-71
2023/01/18 06:28:32;;;;;;;10.93;7.83;;;;;;;;;;5019781;28;20202;-71
2023/01/18 06:30:59;;;;;;;9.00;6.83;;;;;;;;;;5022416;28;20199;-73
2023/01/18 06:33:25;;;;;;;10.27;7.30;;;;;;;;;;5019827;28;20206;-74
2023/01/18 06:35:51;;;;;;;9.23;7.20;;;;;;;;;;5017672;28;20427;-73
2023/01/18 06:38:18;;;;;;;10.20;7.50;;;;;;;;;;5023645;28;20186;-74
2023/01/18 06:40:44;;;;;;;10.83;6.90;;;;;;;;;;5019388;28;20238;-75
2023/01/18 06:43:12;;;;;;;11.00;7.60;;;;;;;;;;5012908;28;20202;-79
2023/01/18 06:45:40;;;;;;;12.70;7.70;;;;;;;;;;5025177;28;20174;-75
2023/01/18 06:48:06;;;;;;;12.05;9.20;;;;;;;;;;5028165;28;20432;-73
2023/01/18 06:50:32;;;;;;;12.23;8.60;;;;;;;;;;5027179;28;20254;-73
2023/01/18 06:52:58;;;;;;;11.73;8.40;;;;;;;;;;5020924;28;20202;-73
2023/01/18 06:55:25;;;;;;;11.17;7.93;;;;;;;;;;5026533;28;20202;-73
2023/01/18 06:57:51;;;;;;;12.27;8.50;;;;;;;;;;5029872;28;20224;-73
2023/01/18 07:00:17;;;;;;;11.23;8.50;;;;;;;;;;5023416;28;20694;-73
2023/01/18 07:02:43;;;;;;;12.53;8.60;;;;;;;;;;5031218;28;20206;-73
2023/01/18 07:05:09;;;;;;;10.83;7.60;;;;;;;;;;5022266;28;20561;-72
2023/01/18 07:07:36;;;;;;;11.02;8.48;;;;;;;;;;5013247;28;20906;-73
2023/01/18 07:10:02;;;;;;;13.23;9.27;;;;;;;;;;5030720;28;20733;-73
2023/01/18 07:12:28;;;;;;;12.67;8.30;;;;;;;;;;5021200;28;20237;-73
2023/01/18 07:14:54;;;;;;;13.10;8.93;;;;;;;;;;5023721;28;20183;-73
2023/01/18 07:17:21;;;;;;;12.63;8.57;;;;;;;;;;5021458;28;20209;-73
2023/01/18 07:19:47;;;;;;;11.77;7.63;;;;;;;;;;5025976;28;20178;-73
2023/01/18 07:22:13;;;;;;;11.07;7.87;;;;;;;;;;5028024;28;20239;-73
2023/01/18 07:24:39;;;;;;;11.07;7.80;;;;;;;;;;5013569;28;20594;-73
2023/01/18 07:27:05;;;;;;;11.00;8.00;;;;;;;;;;5013600;28;20183;-73
2023/01/18 07:29:32;;;;;;;13.77;7.50;;;;;;;;;;5020107;28;20179;-73
2023/01/18 07:31:59;;;;;;;15.47;7.57;;;;;;;;;;5026175;28;20179;-72
2023/01/18 07:34:26;;;;;;;11.50;8.03;;;;;;;;;;5008795;28;20203;-72
2023/01/18 07:36:53;;;;;;;11.27;7.70;;;;;;;;;;5033255;28;20680;-72
2023/01/18 07:39:19;;;;;;;9.40;7.23;;;;;;;;;;5026506;28;20686;-73
2023/01/18 07:41:45;;;;;;;10.80;7.80;;;;;;;;;;5026947;28;20344;-72
2023/01/18 07:44:12;;;;;;;13.20;9.00;;;;;;;;;;5011060;28;20199;-73
2023/01/18 07:46:38;;;;;;;13.43;9.83;;;;;;;;;;5007404;28;20167;-73
2023/01/18 07:49:05;;;;;;;13.53;9.57;;;;;;;;;;5008072;28;20269;-72
2023/01/18 07:51:31;;;;;;;12.53;8.77;;;;;;;;;;5021088;28;20217;-73
2023/01/18 07:53:58;;;;;;;12.63;8.70;;;;;;;;;;5029477;28;20709;-73
2023/01/18 07:56:24;;;;;;;14.10;8.53;;;;;;;;;;5021840;28;20184;-73
2023/01/18 07:58:51;;;;;;;10.77;7.67;;;;;;;;;;5019577;28;20206;-73
2023/01/18 08:01:18;;;;;;;11.10;8.50;;;;;;;;;;5022687;28;20256;-73
2023/01/18 08:03:46;;;;;;;12.17;8.53;;;;;;;;;;5022985;28;20199;-72
2023/01/18 08:06:15;;;;;;;13.30;8.43;;;;;;;;;;5020002;28;20186;-73
2023/01/18 08:08:42;;;;;;;12.63;8.37;;;;;;;;;;5025457;28;20827;-73
2023/01/18 08:11:08;;;;;;;14.30;9.07;;;;;;;;;;5019702;28;20186;-72
2023/01/18 08:13:35;;;;;;;10.93;8.33;;;;;;;;;;5014619;28;20219;-73
2023/01/18 08:16:02;;;;;;;9.33;7.50;;;;;;;;;;5027593;28;20192;-73
2023/01/18 08:18:28;;;;;;;9.67;6.50;;;;;;;;;;5005182;28;20189;-73
2023/01/18 08:20:55;;;;;;;11.33;6.80;;;;;;;;;;5025760;28;20238;-73
2023/01/18 08:23:21;;;;;;;10.57;7.00;;;;;;;;;;5022273;28;20685;-73
2023/01/18 08:25:47;;;;;;;12.03;6.80;;;;;;;;;;5022534;28;20274;-72
2023/01/18 08:28:13;;;;;;;8.93;6.77;;;;;;;;;;5024993;28;20670;-73
2023/01/18 08:30:41;;;;;;;12.30;7.07;;;;;;;;;;5020039;28;20194;-73
2023/01/18 08:33:07;;;;;;;9.37;7.03;;;;;;;;;;5030990;28;20237;-72
2023/01/18 08:35:38;;;;;;;10.97;6.43;;;;;;;;;;5030950;28;20562;-72
2023/01/18 08:38:04;;;;;;;10.40;6.10;;;;;;;;;;5012164;28;20250;-73
2023/01/18 08:40:31;;;;;;;7.77;6.37;;;;;;;;;;5030726;28;20183;-72
2023/01/18 08:42:58;;;;;;;8.60;6.40;;;;;;;;;;5026515;28;20301;-72
2023/01/18 08:45:24;;;;;;;9.03;6.60;;;;;;;;;;5027453;28;20171;-72
2023/01/18 08:48:04;;;;;;;8.63;6.30;;;;;;;;;;5025465;28;20179;-72
2023/01/18 08:50:31;;;;;;;11.23;6.50;;;;;;;;;;5030294;28;20277;-73
2023/01/18 08:52:58;;;;;;;9.70;6.73;;;;;;;;;;5030131;28;20222;-73
2023/01/18 08:55:25;;;;;;;11.53;7.70;;;;;;;;;;5010666;28;20180;-73
2023/01/18 08:57:53;;;;;;;13.30;6.80;;;;;;;;;;5017067;28;20183;-72
2023/01/18 09:00:22;;;;;;;12.17;6.90;;;;;;;;;;5026774;28;20198;-73
2023/01/18 09:02:48;;;;;;;11.10;6.37;;;;;;;;;;5026783;28;20662;-73
2023/01/18 09:05:14;;;;;;;10.93;6.00;;;;;;;;;;5028732;28;20187;-72
2023/01/18 09:07:40;;;;;;;9.13;6.17;;;;;;;;;;5029877;28;20202;-72
2023/01/18 09:10:07;;;;;;;9.30;5.73;;;;;;;;;;5024316;28;20248;-73
2023/01/18 09:12:34;;;;;;;9.90;6.20;;;;;;;;;;5021376;28;20209;-72
2023/01/18 09:15:00;;;;;;;7.47;5.10;;;;;;;;;;5028657;28;20174;-73
2023/01/18 09:17:26;;;;;;;11.03;6.33;;;;;;;;;;5020941;28;20175;-72
2023/01/18 09:19:53;;;;;;;12.30;5.53;;;;;;;;;;5021707;28;20265;-73
2023/01/18 09:22:20;;;;;;;7.60;5.30;;;;;;;;;;5025265;28;20202;-73
2023/01/18 09:24:46;;;;;;;8.43;4.70;;;;;;;;;;5021406;28;20174;-72
2023/01/18 09:27:12;;;;;;;9.47;5.10;;;;;;;;;;5021041;28;20654;-73
2023/01/18 09:29:39;;;;;;;6.03;4.67;;;;;;;;;;5008992;28;20171;-73
2023/01/18 09:32:09;;;;;;;6.80;4.33;;;;;;;;;;5017627;28;20191;-72
2023/01/18 09:34:35;;;;;;;7.80;4.70;;;;;;;;;;5016386;28;20293;-73
2023/01/18 09:37:01;;;;;;;8.03;4.67;;;;;;;;;;5021181;28;20202;-73
2023/01/18 09:39:28;;;;;;;7.37;4.53;;;;;;;;;;5025484;28;20187;-73
2023/01/18 09:41:56;;;;;;;9.70;5.10;;;;;;;;;;5029590;28;20253;-73
2023/01/18 09:44:22;;;;;;;8.00;4.40;;;;;;;;;;5027402;28;20682;-73
2023/01/18 09:46:54;;;;;;;6.60;4.23;;;;;;;;;;5029204;28;20205;-73
2023/01/18 09:49:51;;;;;;;6.07;4.50;;;;;;;;;;5026514;28;20670;-73
2023/01/18 09:52:18;;;;;;;6.53;4.53;;;;;;;;;;4981805;28;20206;-73
2023/01/18 09:54:54;;;;;;;8.03;4.90;;;;;;;;;;5009932;28;20186;-73
2023/01/18 09:57:46;;;;;;;12.33;5.10;;;;;;;;;;5027233;28;20178;-73
2023/01/18 10:00:17;;;;;;;5.43;4.27;;;;;;;;;;5001058;28;20657;-73
2023/01/18 10:02:44;;;;;;;6.50;4.50;;;;;;;;;;5028103;28;20680;-73
2023/01/18 10:05:17;;;;;;;8.03;4.70;;;;;;;;;;5028892;28;20186;-73
2023/01/18 10:07:53;;;;;;;9.30;5.03;;;;;;;;;;5013283;28;20167;-73
2023/01/18 10:10:21;;;;;;;8.77;4.70;;;;;;;;;;5008579;28;20167;-73
2023/01/18 10:12:50;;;;;;;8.67;4.07;;;;;;;;;;5019520;28;20244;-73
2023/01/18 10:15:21;;;;;;;7.03;4.40;;;;;;;;;;5018304;28;20187;-73
2023/01/18 10:17:48;;;;;;;8.43;4.47;;;;;;;;;;5022136;28;20221;-73
2023/01/18 10:20:16;;;;;;;5.60;3.60;;;;;;;;;;5023013;28;20754;-73
2023/01/18 10:22:48;;;;;;;7.80;4.60;;;;;;;;;;5020229;28;20666;-73
2023/01/18 10:25:18;;;;;;;7.50;3.90;;;;;;;;;;5012895;28;20558;-73
2023/01/18 10:27:59;;;;;;;8.47;4.30;;;;;;;;;;5027383;28;20233;-73
2023/01/18 10:30:28;;;;;;;5.23;3.70;;;;;;;;;;5026664;28;20273;-73
2023/01/18 10:32:56;;;;;;;11.97;4.43;;;;;;;;;;5027185;28;20202;-73
2023/01/18 10:35:34;;;;;;;6.10;3.90;;;;;;;;;;5024778;28;20182;-72
2023/01/18 10:38:03;;;;;;;6.50;3.50;;;;;;;;;;5017799;28;20194;-73
2023/01/18 10:40:29;;;;;;;6.57;3.80;;;;;;;;;;5026396;28;20240;-73
2023/01/18 10:42:59;;;;;;;7.27;3.77;;;;;;;;;;4999136;28;20280;-73
2023/01/18 10:45:27;;;;;;;4.03;3.00;;;;;;;;;;5016577;28;20186;-73
2023/01/18 10:47:55;;;;;;;4.73;3.20;;;;;;;;;;5020411;28;20194;-73
2023/01/18 10:50:23;;;;;;;5.17;3.30;;;;;;;;;;5007833;28;20194;-74
2023/01/18 10:52:49;;;;;;;7.87;3.50;;;;;;;;;;5005941;28;20241;-73
2023/01/18 10:55:17;;;;;;;7.17;3.63;;;;;;;;;;5020932;28;20184;-73
2023/01/18 10:57:47;;;;;;;5.03;3.00;;;;;;;;;;5015097;28;20512;-77
2023/01/18 11:00:22;;;;;;;4.83;3.27;;;;;;;;;;5016058;28;20388;-74
2023/01/18 11:02:49;;;;;;;6.30;3.83;;;;;;;;;;5017636;28;20336;-76
2023/01/18 11:05:30;;;;;;;6.47;3.40;;;;;;;;;;5020052;28;20214;-76
2023/01/18 11:08:15;;;;;;;7.63;3.40;;;;;;;;;;5012353;28;20203;-77
2023/01/18 11:10:42;;;;;;;6.33;3.30;;;;;;;;;;4996287;28;20284;-73
2023/01/18 11:13:31;;;;;;;5.43;3.07;;;;;;;;;;5017177;28;20210;-73
2023/01/18 11:16:03;;;;;;;4.53;3.27;;;;;;;;;;5019664;28;20182;-73
2023/01/18 11:18:30;;;;;;;6.93;3.27;;;;;;;;;;5016667;28;20178;-74
2023/01/18 11:20:56;;;;;;;5.07;3.30;;;;;;;;;;5018554;28;20210;-73
2023/01/18 11:23:24;;;;;;;5.90;4.10;;;;;;;;;;5022668;28;20199;-73
2023/01/18 11:25:52;;;;;;;6.80;3.53;;;;;;;;;;5017114;28;20674;-73
2023/01/18 11:28:26;;;;;;;5.97;3.40;;;;;;;;;;5020693;28;20277;-73
2023/01/18 11:31:04;;;;;;;5.03;3.43;;;;;;;;;;5016410;28;20246;-73
2023/01/18 11:33:30;;;;;;;5.40;3.50;;;;;;;;;;5007036;28;20234;-73
2023/01/18 11:35:58;;;;;;;5.60;3.40;;;;;;;;;;5028441;28;20175;-73
2023/01/18 11:38:30;;;;;;;6.20;3.27;;;;;;;;;;5017797;28;20183;-73
2023/01/18 11:41:04;;;;;;;8.97;3.57;;;;;;;;;;5022259;28;20206;-73
2023/01/18 11:43:32;;;;;;;6.43;3.70;;;;;;;;;;5000911;28;20199;-73
2023/01/18 11:46:02;;;;;;;7.03;3.83;;;;;;;;;;5014830;28;20638;-73
2023/01/18 11:48:33;;;;;;;5.87;3.53;;;;;;;;;;5022586;28;20179;-73
2023/01/18 11:51:06;;;;;;;5.53;3.93;;;;;;;;;;5014589;28;20198;-73
2023/01/18 11:53:32;;;;;;;7.67;3.80;;;;;;;;;;5008148;28;20274;-74
2023/01/18 11:56:05;;;;;;;5.83;3.33;;;;;;;;;;5010139;28;20420;-73
2023/01/18 11:58:32;;;;;;;7.97;3.77;;;;;;;;;;5019228;28;20258;-73
2023/01/18 12:01:08;;;;;;;6.00;3.73;;;;;;;;;;5015442;28;20728;-73
2023/01/18 12:03:46;;;;;;;6.50;3.73;;;;;;;;;;5015093;28;20198;-73
2023/01/18 12:06:28;;;;;;;6.33;3.67;;;;;;;;;;5014720;28;20171;-73
2023/01/18 12:08:57;;;;;;;9.00;4.37;;;;;;;;;;5006627;28;20168;-73
2023/01/18 12:11:56;;;;;;;9.37;3.60;;;;;;;;;;5018432;28;20206;-73
2023/01/18 12:14:23;;;;;;;7.90;3.90;;;;;;;;;;4987780;28;20614;-74
2023/01/18 12:17:08;;;;;;;7.13;3.73;;;;;;;;;;5015412;28;20252;-73
2023/01/18 12:19:49;;;;;;;7.00;4.60;;;;;;;;;;5015594;28;20217;-73
2023/01/18 12:22:32;;;;;;;5.17;3.80;;;;;;;;;;5021290;28;20578;-74
2023/01/18 12:25:17;;;;;;;5.10;3.60;;;;;;;;;;5023765;28;21240;-72
2023/01/18 12:28:09;;;;;;;6.20;3.90;;;;;;;;;;5025522;28;20884;-77
2023/01/18 12:30:56;;;;;;;7.63;3.97;;;;;;;;;;5016074;28;20187;-72
2023/01/18 12:33:31;;;;;;;7.30;3.27;;;;;;;;;;5020160;28;20195;-73
2023/01/18 12:36:05;;;;;;;8.90;3.80;;;;;;;;;;5017661;28;20175;-74
2023/01/18 12:38:32;;;;;;;6.20;3.70;;;;;;;;;;5017036;28;20178;-73
2023/01/18 12:41:12;;;;;;;9.70;3.70;;;;;;;;;;5021586;28;20318;-74
2023/01/18 12:43:39;;;;;;;7.30;3.80;;;;;;;;;;5012565;28;20690;-72
2023/01/18 12:46:29;;;;;;;5.80;3.40;;;;;;;;;;5028083;28;20181;-72
2023/01/18 12:48:57;;;;;;;4.90;3.40;;;;;;;;;;5017864;28;20286;-74
2023/01/18 12:51:25;;;;;;;5.40;3.63;;;;;;;;;;5017206;28;20191;-73
2023/01/18 12:53:55;;;;;;;6.57;3.80;;;;;;;;;;5024875;28;20198;-71
2023/01/18 12:56:26;;;;;;;7.47;3.50;;;;;;;;;;5022448;28;20199;-73
2023/01/18 12:58:55;;;;;;;6.67;3.63;;;;;;;;;;5026489;28;20185;-72
2023/01/18 13:01:24;;;;;;;6.13;3.83;;;;;;;;;;5030793;28;20248;-72
2023/01/18 13:03:53;;;;;;;6.20;3.87;;;;;;;;;;5022380;28;20257;-73
2023/01/18 13:06:20;;;;;;;6.83;3.83;;;;;;;;;;5021166;28;20182;-72
2023/01/18 13:08:46;;;;;;;6.13;3.90;;;;;;;;;;5029320;28;20186;-73
2023/01/18 13:11:13;;;;;;;7.03;4.10;;;;;;;;;;5021260;28;20689;-72
2023/01/18 13:13:41;;;;;;;7.87;4.60;;;;;;;;;;5021552;28;20301;-72
2023/01/18 13:16:25;;;;;;;6.20;4.27;;;;;;;;;;5030295;28;20694;-72
2023/01/18 13:18:58;;;;;;;8.37;4.77;;;;;;;;;;5040137;28;20225;-72
2023/01/18 13:21:43;;;;;;;9.83;5.10;;;;;;;;;;5024926;28;20214;-72
2023/01/18 13:24:25;;;;;;;9.20;5.87;;;;;;;;;;5006389;28;20237;-72
2023/01/18 13:26:52;;;;;;;10.50;5.70;;;;;;;;;;5030139;28;20179;-72
2023/01/18 13:29:25;;;;;;;11.07;5.77;;;;;;;;;;5019702;28;20710;-72
2023/01/18 13:31:51;;;;;;;12.83;6.60;;;;;;;;;;5021987;28;20186;-74
2023/01/18 13:34:30;;;;;;;8.73;5.63;;;;;;;;;;5024939;28;20276;-76
2023/01/18 13:36:57;;;;;;;10.90;6.40;;;;;;;;;;5025813;28;20248;-75
2023/01/18 13:39:24;;;;;;;8.17;6.03;;;;;;;;;;5022038;28;20586;-74
2023/01/18 13:42:23;;;;;;;10.57;5.93;;;;;;;;;;5026666;28;20242;-73
2023/01/18 13:44:49;;;;;;;9.40;5.80;;;;;;;;;;5021215;28;20193;-73
2023/01/18 13:47:34;;;;;;;14.07;6.43;;;;;;;;;;5027615;28;20189;-73
2023/01/18 13:50:01;;;;;;;9.13;5.47;;;;;;;;;;5021619;28;20190;-73
2023/01/18 13:52:34;;;;;;;9.40;6.40;;;;;;;;;;5020716;28;20217;-72
2023/01/18 13:55:02;;;;;;;12.13;6.70;;;;;;;;;;5024045;28;20190;-73
2023/01/18 13:57:30;;;;;;;13.63;6.47;;;;;;;;;;5005589;28;20191;-73
2023/01/18 13:59:56;;;;;;;13.30;6.77;;;;;;;;;;5021310;28;20191;-73
2023/01/18 14:02:27;;;;;;;9.20;6.03;;;;;;;;;;5027655;28;20215;-73
2023/01/18 14:05:02;;;;;;;13.73;7.43;;;;;;;;;;5016963;28;20259;-73
2023/01/18 14:07:29;;;;;;;15.40;7.90;;;;;;;;;;5026936;28;20550;-73
2023/01/18 14:10:02;;;;;;;12.43;6.87;;;;;;;;;;5025324;28;20182;-73
2023/01/18 14:12:46;;;;;;;12.27;6.67;;;;;;;;;;5021493;28;20219;-73
2023/01/18 14:15:23;;;;;;;12.63;7.43;;;;;;;;;;5018258;28;20654;-73
2023/01/18 14:17:49;;;;;;;13.63;7.43;;;;;;;;;;5017719;28;20668;-73
2023/01/18 14:20:36;;;;;;;10.53;7.30;;;;;;;;;;5020462;28;20189;-73
2023/01/18 14:23:21;;;;;;;13.13;7.80;;;;;;;;;;5019885;28;20737;-73
2023/01/18 14:26:02;;;;;;;10.67;7.10;;;;;;;;;;5023169;28;20194;-73
2023/01/18 14:28:31;;;;;;;12.80;6.97;;;;;;;;;;5018831;28;20788;-73
2023/01/18 14:30:59;;;;;;;10.47;6.40;;;;;;;;;;5020564;28;20195;-73
2023/01/18 14:33:32;;;;;;;14.50;7.47;;;;;;;;;;5019530;28;20202;-73
2023/01/18 14:36:03;;;;;;;14.40;8.13;;;;;;;;;;5020003;28;20217;-73
2023/01/18 14:38:30;;;;;;;12.10;8.00;;;;;;;;;;5039281;28;20293;-73
2023/01/18 14:40:57;;;;;;;12.90;8.23;;;;;;;;;;5026276;28;20210;-79
2023/01/18 14:43:29;;;;;;;10.83;7.27;;;;;;;;;;5017020;28;20199;-73
2023/01/18 14:45:59;;;;;;;11.40;7.50;;;;;;;;;;5021974;28;20178;-73
2023/01/18 14:48:26;;;;;;;12.60;7.37;;;;;;;;;;5019210;28;20179;-73
2023/01/18 14:50:53;;;;;;;13.27;8.93;;;;;;;;;;5019858;28;20185;-73
2023/01/18 14:53:21;;;;;;;10.43;7.47;;;;;;;;;;5018463;28;20272;-73
2023/01/18 14:56:02;;;;;;;14.47;8.87;;;;;;;;;;5016967;28;20195;-73
2023/01/18 14:58:31;;;;;;;11.83;7.83;;;;;;;;;;5017671;28;20659;-73
2023/01/18 15:00:57;;;;;;;9.27;6.47;;;;;;;;;;5040478;28;20234;-73
2023/01/18 15:03:25;;;;;;;10.87;6.97;;;;;;;;;;5018593;28;20211;-73
2023/01/18 15:05:56;;;;;;;10.57;7.10;;;;;;;;;;5021235;28;20249;-73
2023/01/18 15:08:25;;;;;;;9.43;6.77;;;;;;;;;;5018375;28;20553;-73
2023/01/18 15:10:51;;;;;;;9.57;6.07;;;;;;;;;;5021773;28;20179;-73
2023/01/18 15:13:18;;;;;;;9.03;6.10;;;;;;;;;;5017665;28;20215;-73
2023/01/18 15:15:45;;;;;;;9.83;5.80;;;;;;;;;;5015541;28;20191;-73
2023/01/18 15:18:23;;;;;;;9.57;6.37;;;;;;;;;;5017762;28;20646;-73
2023/01/18 15:21:05;;;;;;;17.30;9.30;;;;;;;;;;5017245;28;20256;-73
2023/01/18 15:23:34;;;;;;;10.43;7.53;;;;;;;;;;5018384;28;20209;-72